sensor_id;sensor_type;location;lat;lon;timestamp;pressure;altitude;pressure_sealevel;temperature;humidity
66381;BME280;53177;52.648;1.214;2022-09-02T00:00:55;101268.72;;;15.95;97.12
66381;BME280;53177;52.648;1.214;2022-09-02T00:03:30;101271.16;;;15.81;98.04
66381;BME280;53177;52.648;1.214;2022-09-02T00:05:56;101265.19;;;15.84;98.69
66381;BME280;53177;52.648;1.214;2022-09-02T00:08:21;101259.75;;;15.74;99.15
66381;BME280;53177;52.648;1.214;2022-09-02T00:10:47;101257.34;;;15.78;99.90
66381;BME280;53177;52.648;1.214;2022-09-02T00:13:15;101251.09;;;15.77;100.00
66381;BME280;53177;52.648;1.214;2022-09-02T00:15:41;101241.09;;;15.73;99.35
66381;BME280;53177;52.648;1.214;2022-09-02T00:18:07;101241.91;;;15.73;99.77
66381;BME280;53177;52.648;1.214;2022-09-02T00:20:37;101240.81;;;15.69;99.97
66381;BME280;53177;52.648;1.214;2022-09-02T00:23:03;101242.13;;;15.66;100.00
66381;BME280;53177;52.648;1.214;2022-09-02T00:25:30;101246.78;;;15.76;100.00
66381;BME280;53177;52.648;1.214;2022-09-02T00:27:56;101229.69;;;15.65;100.00
66381;BME280;53177;52.648;1.214;2022-09-02T00:30:21;101228.84;;;15.55;100.00
66381;BME280;53177;52.648;1.214;2022-09-02T00:32:47;101227.75;;;15.61;100.00
66381;BME280;53177;52.648;1.214;2022-09-02T00:35:13;101225.59;;;15.63;99.88
66381;BME280;53177;52.648;1.214;2022-09-02T00:37:38;101216.66;;;15.57;100.00
66381;BME280;53177;52.648;1.214;2022-09-02T00:40:05;101224.47;;;15.49;100.00
66381;BME280;53177;52.648;1.214;2022-09-02T00:42:32;101217.44;;;15.53;100.00
66381;BME280;53177;52.648;1.214;2022-09-02T00:44:58;101222.34;;;15.56;100.00
66381;BME280;53177;52.648;1.214;2022-09-02T00:47:24;101213.94;;;15.57;100.00
66381;BME280;53177;52.648;1.214;2022-09-02T00:49:51;101210.66;;;15.40;100.00
66381;BME280;53177;52.648;1.214;2022-09-02T00:52:22;101204.44;;;15.39;100.00
66381;BME280;53177;52.648;1.214;2022-09-02T00:54:53;101206.63;;;15.48;100.00
66381;BME280;53177;52.648;1.214;2022-09-02T00:57:23;101203.09;;;15.52;100.00
66381;BME280;53177;52.648;1.214;2022-09-02T01:00:07;101213.13;;;15.52;100.00
66381;BME280;53177;52.648;1.214;2022-09-02T01:02:34;101207.69;;;15.47;100.00
66381;BME280;53177;52.648;1.214;2022-09-02T01:05:03;101203.91;;;15.42;100.00
66381;BME280;53177;52.648;1.214;2022-09-02T01:07:31;101203.09;;;15.42;100.00
66381;BME280;53177;52.648;1.214;2022-09-02T01:10:02;101201.19;;;15.42;100.00
66381;BME280;53177;52.648;1.214;2022-09-02T01:12:29;101198.50;;;15.48;100.00
66381;BME280;53177;52.648;1.214;2022-09-02T01:14:55;101200.66;;;15.46;100.00
66381;BME280;53177;52.648;1.214;2022-09-02T01:17:21;101189.28;;;15.38;100.00
66381;BME280;53177;52.648;1.214;2022-09-02T01:19:52;101187.94;;;15.36;100.00
66381;BME280;53177;52.648;1.214;2022-09-02T01:22:20;101190.09;;;15.34;100.00
66381;BME280;53177;52.648;1.214;2022-09-02T01:24:47;101185.19;;;15.31;100.00
66381;BME280;53177;52.648;1.214;2022-09-02T01:27:18;101179.53;;;15.32;100.00
66381;BME280;53177;52.648;1.214;2022-09-02T01:29:45;101175.47;;;15.35;100.00
66381;BME280;53177;52.648;1.214;2022-09-02T01:32:14;101172.75;;;15.30;100.00
66381;BME280;53177;52.648;1.214;2022-09-02T01:34:39;101172.22;;;15.33;100.00
66381;BME280;53177;52.648;1.214;2022-09-02T01:37:05;101174.13;;;15.37;100.00
66381;BME280;53177;52.648;1.214;2022-09-02T01:39:31;101166.25;;;15.31;100.00
66381;BME280;53177;52.648;1.214;2022-09-02T01:41:56;101168.13;;;15.30;100.00
66381;BME280;53177;52.648;1.214;2022-09-02T01:44:22;101160.84;;;15.31;100.00
66381;BME280;53177;52.648;1.214;2022-09-02T01:46:48;101158.41;;;15.34;100.00
66381;BME280;53177;52.648;1.214;2022-09-02T01:49:13;101154.88;;;15.39;100.00
66381;BME280;53177;52.648;1.214;2022-09-02T01:51:39;101145.16;;;15.38;100.00
66381;BME280;53177;52.648;1.214;2022-09-02T01:54:04;101151.38;;;15.38;100.00
66381;BME280;53177;52.648;1.214;2022-09-02T01:56:30;101147.03;;;15.37;100.00
66381;BME280;53177;52.648;1.214;2022-09-02T01:58:55;101143.78;;;15.35;100.00
66381;BME280;53177;52.648;1.214;2022-09-02T02:01:21;101135.13;;;15.28;100.00
66381;BME280;53177;52.648;1.214;2022-09-02T02:03:46;101142.16;;;15.29;100.00
66381;BME280;53177;52.648;1.214;2022-09-02T02:06:14;101132.66;;;15.27;100.00
66381;BME280;53177;52.648;1.214;2022-09-02T02:08:41;101132.41;;;15.23;100.00
66381;BME280;53177;52.648;1.214;2022-09-02T02:11:07;101139.44;;;15.19;100.00
66381;BME280;53177;52.648;1.214;2022-09-02T02:13:33;101129.97;;;15.22;100.00
66381;BME280;53177;52.648;1.214;2022-09-02T02:15:59;101131.34;;;15.24;100.00
66381;BME280;53177;52.648;1.214;2022-09-02T02:18:24;101123.75;;;15.21;100.00
66381;BME280;53177;52.648;1.214;2022-09-02T02:20:50;101123.22;;;15.19;100.00
66381;BME280;53177;52.648;1.214;2022-09-02T02:23:15;101128.63;;;15.19;100.00
66381;BME280;53177;52.648;1.214;2022-09-02T02:25:42;101113.19;;;15.20;100.00
66381;BME280;53177;52.648;1.214;2022-09-02T02:28:07;101119.94;;;15.22;100.00
66381;BME280;53177;52.648;1.214;2022-09-02T02:30:33;101119.13;;;15.16;100.00
66381;BME280;53177;52.648;1.214;2022-09-02T02:32:58;101120.22;;;15.21;100.00
66381;BME280;53177;52.648;1.214;2022-09-02T02:35:23;101111.81;;;15.22;100.00
66381;BME280;53177;52.648;1.214;2022-09-02T02:37:50;101118.59;;;15.09;100.00
66381;BME280;53177;52.648;1.214;2022-09-02T02:40:20;101116.16;;;15.13;100.00
66381;BME280;53177;52.648;1.214;2022-09-02T02:42:47;101111.28;;;15.15;100.00
66381;BME280;53177;52.648;1.214;2022-09-02T02:45:13;101114.81;;;15.15;100.00
66381;BME280;53177;52.648;1.214;2022-09-02T02:47:41;101108.88;;;15.13;100.00
66381;BME280;53177;52.648;1.214;2022-09-02T02:50:09;101103.69;;;15.12;100.00
66381;BME280;53177;52.648;1.214;2022-09-02T02:52:37;101095.88;;;15.10;100.00
66381;BME280;53177;52.648;1.214;2022-09-02T02:55:04;101102.09;;;15.11;100.00
66381;BME280;53177;52.648;1.214;2022-09-02T02:57:31;101105.59;;;15.11;100.00
66381;BME280;53177;52.648;1.214;2022-09-02T02:59:56;101105.59;;;15.11;100.00
66381;BME280;53177;52.648;1.214;2022-09-02T03:02:22;101106.69;;;15.10;100.00
66381;BME280;53177;52.648;1.214;2022-09-02T03:04:48;101101.00;;;15.07;100.00
66381;BME280;53177;52.648;1.214;2022-09-02T03:07:15;101096.13;;;15.09;100.00
66381;BME280;53177;52.648;1.214;2022-09-02T03:09:40;101093.69;;;15.07;100.00
66381;BME280;53177;52.648;1.214;2022-09-02T03:12:07;101087.47;;;15.07;100.00
66381;BME280;53177;52.648;1.214;2022-09-02T03:14:32;101087.75;;;15.05;100.00
66381;BME280;53177;52.648;1.214;2022-09-02T03:16:58;101094.78;;;15.06;100.00
66381;BME280;53177;52.648;1.214;2022-09-02T03:19:24;101087.47;;;15.07;100.00
66381;BME280;53177;52.648;1.214;2022-09-02T03:21:49;101083.13;;;15.06;100.00
66381;BME280;53177;52.648;1.214;2022-09-02T03:24:14;101087.75;;;15.05;100.00
66381;BME280;53177;52.648;1.214;2022-09-02T03:26:41;101079.63;;;15.05;100.00
66381;BME280;53177;52.648;1.214;2022-09-02T03:29:07;101082.34;;;15.05;100.00
66381;BME280;53177;52.648;1.214;2022-09-02T03:31:32;101076.13;;;15.05;100.00
66381;BME280;53177;52.648;1.214;2022-09-02T03:33:57;101080.44;;;14.96;100.00
66381;BME280;53177;52.648;1.214;2022-09-02T03:36:29;101078.25;;;14.98;100.00
66381;BME280;53177;52.648;1.214;2022-09-02T03:38:55;101076.63;;;14.97;100.00
66381;BME280;53177;52.648;1.214;2022-09-02T03:41:21;101080.44;;;14.96;100.00
66381;BME280;53177;52.648;1.214;2022-09-02T03:43:46;101075.03;;;14.96;100.00
66381;BME280;53177;52.648;1.214;2022-09-02T03:46:12;101065.25;;;14.95;100.00
66381;BME280;53177;52.648;1.214;2022-09-02T03:48:38;101065.25;;;14.95;100.00
66381;BME280;53177;52.648;1.214;2022-09-02T03:51:05;101060.41;;;14.97;100.00
66381;BME280;53177;52.648;1.214;2022-09-02T03:53:31;101066.63;;;14.97;100.00
66381;BME280;53177;52.648;1.214;2022-09-02T03:56:02;101057.69;;;14.97;100.00
66381;BME280;53177;52.648;1.214;2022-09-02T03:58:28;101055.00;;;14.91;100.00
66381;BME280;53177;52.648;1.214;2022-09-02T04:00:54;101052.81;;;14.94;100.00
66381;BME280;53177;52.648;1.214;2022-09-02T04:03:19;101052.81;;;14.94;100.00
66381;BME280;53177;52.648;1.214;2022-09-02T04:05:48;101050.63;;;14.90;100.00
66381;BME280;53177;52.648;1.214;2022-09-02T04:08:15;101042.28;;;14.92;100.00
66381;BME280;53177;52.648;1.214;2022-09-02T04:10:41;101043.09;;;14.93;100.00
66381;BME280;53177;52.648;1.214;2022-09-02T04:13:07;101039.81;;;14.90;100.00
66381;BME280;53177;52.648;1.214;2022-09-02T04:15:32;101034.41;;;14.90;100.00
66381;BME280;53177;52.648;1.214;2022-09-02T04:17:58;101034.41;;;14.90;100.00
66381;BME280;53177;52.648;1.214;2022-09-02T04:20:24;101026.28;;;14.90;100.00
66381;BME280;53177;52.648;1.214;2022-09-02T04:22:50;101035.22;;;14.91;100.00
66381;BME280;53177;52.648;1.214;2022-09-02T04:25:15;101017.94;;;14.87;100.00
66381;BME280;53177;52.648;1.214;2022-09-02T04:27:40;101025.75;;;14.88;100.00
66381;BME280;53177;52.648;1.214;2022-09-02T04:30:07;101030.09;;;14.84;100.00
66381;BME280;53177;52.648;1.214;2022-09-02T04:32:33;101024.69;;;14.84;100.00
66381;BME280;53177;52.648;1.214;2022-09-02T04:34:58;101024.41;;;14.81;100.00
66381;BME280;53177;52.648;1.214;2022-09-02T04:37:24;101021.97;;;14.79;100.00
66381;BME280;53177;52.648;1.214;2022-09-02T04:39:49;101018.69;;;14.77;100.00
66381;BME280;53177;52.648;1.214;2022-09-02T04:42:15;101012.75;;;14.70;100.00
66381;BME280;53177;52.648;1.214;2022-09-02T04:44:40;101014.09;;;14.68;100.00
66381;BME280;53177;52.648;1.214;2022-09-02T04:47:06;101011.13;;;14.69;100.00
66381;BME280;53177;52.648;1.214;2022-09-02T04:49:32;101014.38;;;14.71;100.00
66381;BME280;53177;52.648;1.214;2022-09-02T04:52:00;101010.59;;;14.67;100.00
66381;BME280;53177;52.648;1.214;2022-09-02T04:54:29;101014.91;;;14.68;100.00
66381;BME280;53177;52.648;1.214;2022-09-02T04:56:57;101008.44;;;14.69;100.00
66381;BME280;53177;52.648;1.214;2022-09-02T04:59:24;101008.44;;;14.69;100.00
66381;BME280;53177;52.648;1.214;2022-09-02T05:01:52;101011.13;;;14.69;100.00
66381;BME280;53177;52.648;1.214;2022-09-02T05:04:18;101008.69;;;14.68;100.00
66381;BME280;53177;52.648;1.214;2022-09-02T05:06:44;101005.69;;;14.64;100.00
66381;BME280;53177;52.648;1.214;2022-09-02T05:09:11;101001.38;;;14.63;100.00
66381;BME280;53177;52.648;1.214;2022-09-02T05:11:37;101004.63;;;14.65;100.00
66381;BME280;53177;52.648;1.214;2022-09-02T05:14:05;101013.28;;;14.57;100.00
66381;BME280;53177;52.648;1.214;2022-09-02T05:16:36;101008.41;;;14.64;100.00
66381;BME280;53177;52.648;1.214;2022-09-02T05:19:06;101010.28;;;14.63;100.00
66381;BME280;53177;52.648;1.214;2022-09-02T05:21:32;101009.25;;;14.64;100.00
66381;BME280;53177;52.648;1.214;2022-09-02T05:23:58;101008.41;;;14.64;100.00
66381;BME280;53177;52.648;1.214;2022-09-02T05:26:23;101013.56;;;14.60;100.00
66381;BME280;53177;52.648;1.214;2022-09-02T05:28:49;101011.66;;;14.61;100.00
66381;BME280;53177;52.648;1.214;2022-09-02T05:31:19;101017.06;;;14.61;100.00
66381;BME280;53177;52.648;1.214;2022-09-02T05:33:48;101010.03;;;14.60;100.00
66381;BME280;53177;52.648;1.214;2022-09-02T05:36:19;101008.41;;;14.64;100.00
66381;BME280;53177;52.648;1.214;2022-09-02T05:38:46;101000.28;;;14.59;100.00
66381;BME280;53177;52.648;1.214;2022-09-02T05:41:14;101007.31;;;14.55;100.00
66381;BME280;53177;52.648;1.214;2022-09-02T05:43:42;101003.56;;;14.61;100.00
66381;BME280;53177;52.648;1.214;2022-09-02T05:46:15;101004.88;;;14.63;100.00
66381;BME280;53177;52.648;1.214;2022-09-02T05:48:44;100997.06;;;14.62;100.00
66381;BME280;53177;52.648;1.214;2022-09-02T05:51:33;101000.03;;;14.60;100.00
66381;BME280;53177;52.648;1.214;2022-09-02T05:54:01;100992.97;;;14.59;100.00
66381;BME280;53177;52.648;1.214;2022-09-02T05:56:27;100994.34;;;14.62;100.00
66381;BME280;53177;52.648;1.214;2022-09-02T05:58:55;100987.59;;;14.64;100.00
66381;BME280;53177;52.648;1.214;2022-09-02T06:01:21;100989.75;;;14.68;100.00
66381;BME280;53177;52.648;1.214;2022-09-02T06:03:47;100996.53;;;14.70;100.00
66381;BME280;53177;52.648;1.214;2022-09-02T06:06:13;100996.81;;;14.74;100.00
66381;BME280;53177;52.648;1.214;2022-09-02T06:08:39;100993.56;;;14.77;100.00
66381;BME280;53177;52.648;1.214;2022-09-02T06:11:07;100990.03;;;14.76;100.00
66381;BME280;53177;52.648;1.214;2022-09-02T06:13:36;100988.41;;;14.80;100.00
66381;BME280;53177;52.648;1.214;2022-09-02T06:16:02;100988.41;;;14.85;100.00
66381;BME280;53177;52.648;1.214;2022-09-02T06:18:28;100987.88;;;14.88;100.00
66381;BME280;53177;52.648;1.214;2022-09-02T06:20:53;100988.41;;;14.90;100.00
66381;BME280;53177;52.648;1.214;2022-09-02T06:23:19;100991.16;;;14.96;100.00
66381;BME280;53177;52.648;1.214;2022-09-02T06:25:46;100987.34;;;15.02;100.00
66381;BME280;53177;52.648;1.214;2022-09-02T06:28:13;100981.94;;;15.07;100.00
66381;BME280;53177;52.648;1.214;2022-09-02T06:30:40;100978.13;;;15.13;100.00
66381;BME280;53177;52.648;1.214;2022-09-02T06:33:06;100984.63;;;15.22;100.00
66381;BME280;53177;52.648;1.214;2022-09-02T06:35:38;100986.25;;;15.28;100.00
66381;BME280;53177;52.648;1.214;2022-09-02T06:38:04;100982.72;;;15.33;100.00
66381;BME280;53177;52.648;1.214;2022-09-02T06:40:30;100987.31;;;15.37;100.00
66381;BME280;53177;52.648;1.214;2022-09-02T06:42:55;100985.13;;;15.45;100.00
66381;BME280;53177;52.648;1.214;2022-09-02T06:45:21;100986.47;;;15.52;100.00
66381;BME280;53177;52.648;1.214;2022-09-02T06:47:49;100983.72;;;15.62;100.00
66381;BME280;53177;52.648;1.214;2022-09-02T06:50:15;100981.88;;;15.68;100.00
66381;BME280;53177;52.648;1.214;2022-09-02T06:52:41;100977.50;;;15.77;100.00
66381;BME280;53177;52.648;1.214;2022-09-02T06:55:07;100977.19;;;15.94;100.00
66381;BME280;53177;52.648;1.214;2022-09-02T06:57:34;100977.41;;;16.03;100.00
66381;BME280;53177;52.648;1.214;2022-09-02T07:00:00;100973.56;;;16.14;100.00
66381;BME280;53177;52.648;1.214;2022-09-02T07:02:25;100968.03;;;16.29;100.00
66381;BME280;53177;52.648;1.214;2022-09-02T07:04:51;100973.44;;;16.39;100.00
66381;BME280;53177;52.648;1.214;2022-09-02T07:07:40;100973.91;;;16.47;100.00
66381;BME280;53177;52.648;1.214;2022-09-02T07:10:09;100967.84;;;16.60;100.00
66381;BME280;53177;52.648;1.214;2022-09-02T07:12:39;100970.28;;;16.66;100.00
66381;BME280;53177;52.648;1.214;2022-09-02T07:15:05;100969.97;;;16.73;100.00
66381;BME280;53177;52.648;1.214;2022-09-02T07:17:31;100965.00;;;16.85;100.00
66381;BME280;53177;52.648;1.214;2022-09-02T07:19:57;100977.97;;;16.93;100.00
66381;BME280;53177;52.648;1.214;2022-09-02T07:22:27;100970.81;;;17.03;100.00
66381;BME280;53177;52.648;1.214;2022-09-02T07:24:52;100969.63;;;17.14;100.00
66381;BME280;53177;52.648;1.214;2022-09-02T07:27:18;100964.19;;;17.14;100.00
66381;BME280;53177;52.648;1.214;2022-09-02T07:29:47;100958.75;;;17.19;100.00
66381;BME280;53177;52.648;1.214;2022-09-02T07:32:14;100954.06;;;17.25;100.00
66381;BME280;53177;52.648;1.214;2022-09-02T07:34:39;100956.69;;;17.35;100.00
66381;BME280;53177;52.648;1.214;2022-09-02T07:37:05;100952.53;;;17.42;100.00
66381;BME280;53177;52.648;1.214;2022-09-02T07:39:30;100960.50;;;17.58;100.00
66381;BME280;53177;52.648;1.214;2022-09-02T07:41:57;100960.69;;;17.66;100.00
66381;BME280;53177;52.648;1.214;2022-09-02T07:44:26;100957.06;;;17.76;100.00
66381;BME280;53177;52.648;1.214;2022-09-02T07:46:53;100950.66;;;17.91;100.00
66381;BME280;53177;52.648;1.214;2022-09-02T07:49:19;100953.44;;;17.86;100.00
66381;BME280;53177;52.648;1.214;2022-09-02T07:51:47;100946.19;;;18.00;100.00
66381;BME280;53177;52.648;1.214;2022-09-02T07:54:13;100952.34;;;18.06;99.08
66381;BME280;53177;52.648;1.214;2022-09-02T07:56:39;100949.13;;;18.23;97.41
66381;BME280;53177;52.648;1.214;2022-09-02T07:59:04;100945.09;;;18.20;94.65
66381;BME280;53177;52.648;1.214;2022-09-02T08:01:30;100950.81;;;18.37;96.58
66381;BME280;53177;52.648;1.214;2022-09-02T08:03:56;100942.88;;;18.60;95.04
66381;BME280;53177;52.648;1.214;2022-09-02T08:06:22;100949.19;;;18.74;94.09
66381;BME280;53177;52.648;1.214;2022-09-02T08:08:52;100955.06;;;18.81;93.60
66381;BME280;53177;52.648;1.214;2022-09-02T08:11:17;100956.59;;;18.87;92.34
66381;BME280;53177;52.648;1.214;2022-09-02T08:13:43;100950.66;;;18.85;87.85
66381;BME280;53177;52.648;1.214;2022-09-02T08:16:10;100951.94;;;19.07;87.33
66381;BME280;53177;52.648;1.214;2022-09-02T08:18:35;100939.25;;;19.16;83.98
66381;BME280;53177;52.648;1.214;2022-09-02T08:21:01;100946.31;;;19.31;85.05
66381;BME280;53177;52.648;1.214;2022-09-02T08:23:26;100937.72;;;19.37;83.50
66381;BME280;53177;52.648;1.214;2022-09-02T08:25:52;100939.28;;;19.43;82.33
66381;BME280;53177;52.648;1.214;2022-09-02T08:28:17;100934.53;;;19.49;82.23
66381;BME280;53177;52.648;1.214;2022-09-02T08:30:43;100932.16;;;19.61;82.14
66381;BME280;53177;52.648;1.214;2022-09-02T08:33:09;100935.66;;;19.62;77.97
66381;BME280;53177;52.648;1.214;2022-09-02T08:35:34;100935.88;;;19.79;78.20
66381;BME280;53177;52.648;1.214;2022-09-02T08:38:00;100938.47;;;19.98;76.33
66381;BME280;53177;52.648;1.214;2022-09-02T08:40:38;100927.75;;;20.02;72.07
66381;BME280;53177;52.648;1.214;2022-09-02T08:43:18;100931.13;;;20.21;71.01
66381;BME280;53177;52.648;1.214;2022-09-02T08:45:51;100934.34;;;20.37;70.80
66381;BME280;53177;52.648;1.214;2022-09-02T08:48:32;100927.59;;;20.57;68.21
66381;BME280;53177;52.648;1.214;2022-09-02T08:51:07;100925.25;;;20.86;68.62
66381;BME280;53177;52.648;1.214;2022-09-02T08:53:45;100932.06;;;20.98;67.61
66381;BME280;53177;52.648;1.214;2022-09-02T08:56:15;100917.63;;;20.75;64.83
66381;BME280;53177;52.648;1.214;2022-09-02T08:58:44;100921.84;;;20.81;62.77
66381;BME280;53177;52.648;1.214;2022-09-02T09:01:20;100919.34;;;20.93;62.72
66381;BME280;53177;52.648;1.214;2022-09-02T09:07:27;100916.88;;;21.45;59.85
66381;BME280;53177;52.648;1.214;2022-09-02T09:10:35;100913.66;;;21.34;59.35
66381;BME280;53177;52.648;1.214;2022-09-02T09:15:52;100908.56;;;21.59;58.39
66381;BME280;53177;52.648;1.214;2022-09-02T09:18:31;100904.97;;;21.98;57.17
66381;BME280;53177;52.648;1.214;2022-09-02T09:20:59;100896.75;;;22.07;55.97
66381;BME280;53177;52.648;1.214;2022-09-02T09:23:28;100895.03;;;22.28;55.42
66381;BME280;53177;52.648;1.214;2022-09-02T09:26:03;100902.59;;;22.40;53.27
66381;BME280;53177;52.648;1.214;2022-09-02T09:28:30;100898.25;;;22.39;51.28
66381;BME280;53177;52.648;1.214;2022-09-02T09:30:55;100887.91;;;22.53;51.80
66381;BME280;53177;52.648;1.214;2022-09-02T09:33:23;100887.44;;;22.60;52.42
66381;BME280;53177;52.648;1.214;2022-09-02T09:35:53;100893.88;;;22.64;51.02
66381;BME280;53177;52.648;1.214;2022-09-02T09:38:30;100895.72;;;23.07;49.64
66381;BME280;53177;52.648;1.214;2022-09-02T09:41:14;100890.69;;;23.47;49.28
66381;BME280;53177;52.648;1.214;2022-09-02T09:43:41;100899.16;;;23.33;48.10
66381;BME280;53177;52.648;1.214;2022-09-02T09:46:24;100892.78;;;23.50;51.78
66381;BME280;53177;52.648;1.214;2022-09-02T09:48:50;100891.72;;;23.34;47.42
66381;BME280;53177;52.648;1.214;2022-09-02T09:51:16;100895.56;;;23.80;49.13
66381;BME280;53177;52.648;1.214;2022-09-02T09:53:42;100886.88;;;23.39;49.81
66381;BME280;53177;52.648;1.214;2022-09-02T10:01:32;100879.91;;;24.01;47.00
66381;BME280;53177;52.648;1.214;2022-09-02T10:04:11;100878.00;;;24.35;52.20
66381;BME280;53177;52.648;1.214;2022-09-02T10:06:47;100873.75;;;24.25;47.95
66381;BME280;53177;52.648;1.214;2022-09-02T10:11:38;100877.44;;;22.64;48.28
66381;BME280;53177;52.648;1.214;2022-09-02T10:14:09;100874.22;;;22.62;48.87
66381;BME280;53177;52.648;1.214;2022-09-02T10:27:16;100867.66;;;23.99;48.14
66381;BME280;53177;52.648;1.214;2022-09-02T10:32:23;100866.19;;;24.88;49.08
66381;BME280;53177;52.648;1.214;2022-09-02T10:37:23;100864.75;;;24.58;46.27
66381;BME280;53177;52.648;1.214;2022-09-02T10:50:39;100851.13;;;25.19;45.82
66381;BME280;53177;52.648;1.214;2022-09-02T10:53:29;100853.72;;;25.03;45.01
66381;BME280;53177;52.648;1.214;2022-09-02T10:56:10;100858.06;;;25.04;43.09
66381;BME280;53177;52.648;1.214;2022-09-02T11:01:59;100857.88;;;25.09;43.65
66381;BME280;53177;52.648;1.214;2022-09-02T11:04:48;100847.47;;;24.36;44.48
66381;BME280;53177;52.648;1.214;2022-09-02T11:07:20;100846.66;;;24.57;44.29
66381;BME280;53177;52.648;1.214;2022-09-02T11:09:54;100838.69;;;24.76;43.98
66381;BME280;53177;52.648;1.214;2022-09-02T11:12:44;100841.50;;;25.13;43.83
66381;BME280;53177;52.648;1.214;2022-09-02T11:15:14;100851.44;;;24.48;44.42
66381;BME280;53177;52.648;1.214;2022-09-02T11:20:40;100840.56;;;25.09;45.08
66381;BME280;53177;52.648;1.214;2022-09-02T11:23:43;100833.84;;;25.18;50.23
66381;BME280;53177;52.648;1.214;2022-09-02T11:26:15;100837.78;;;25.70;49.31
66381;BME280;53177;52.648;1.214;2022-09-02T11:29:26;100830.63;;;25.16;43.85
66381;BME280;53177;52.648;1.214;2022-09-02T11:31:57;100820.75;;;26.05;43.81
66381;BME280;53177;52.648;1.214;2022-09-02T11:37:09;100826.78;;;25.70;46.72
66381;BME280;53177;52.648;1.214;2022-09-02T11:48:33;100811.50;;;25.32;42.77
66381;BME280;53177;52.648;1.214;2022-09-02T11:53:50;100808.09;;;24.32;43.84
66381;BME280;53177;52.648;1.214;2022-09-02T11:56:19;100804.59;;;25.02;47.13
66381;BME280;53177;52.648;1.214;2022-09-02T11:58:48;100805.38;;;24.90;43.44
66381;BME280;53177;52.648;1.214;2022-09-02T12:03:44;100800.78;;;24.82;43.56
66381;BME280;53177;52.648;1.214;2022-09-02T12:06:16;100789.63;;;26.16;44.40
66381;BME280;53177;52.648;1.214;2022-09-02T12:11:33;100795.19;;;26.20;43.45
66381;BME280;53177;52.648;1.214;2022-09-02T12:17:03;100793.50;;;26.15;43.55
66381;BME280;53177;52.648;1.214;2022-09-02T12:19:44;100801.25;;;27.01;46.96
66381;BME280;53177;52.648;1.214;2022-09-02T12:24:50;100790.56;;;27.31;40.49
66381;BME280;53177;52.648;1.214;2022-09-02T12:27:35;100787.59;;;26.29;41.53
66381;BME280;53177;52.648;1.214;2022-09-02T12:30:03;100792.44;;;26.95;43.63
66381;BME280;53177;52.648;1.214;2022-09-02T12:35:49;100785.81;;;27.48;42.73
66381;BME280;53177;52.648;1.214;2022-09-02T12:38:41;100791.03;;;27.02;40.68
66381;BME280;53177;52.648;1.214;2022-09-02T12:41:20;100778.41;;;26.25;43.52
66381;BME280;53177;52.648;1.214;2022-09-02T12:44:13;100775.06;;;26.76;42.48
66381;BME280;53177;52.648;1.214;2022-09-02T12:49:22;100771.63;;;27.49;40.57
66381;BME280;53177;52.648;1.214;2022-09-02T12:54:47;100767.03;;;26.11;43.11
66381;BME280;53177;52.648;1.214;2022-09-02T12:57:15;100761.09;;;26.09;44.48
66381;BME280;53177;52.648;1.214;2022-09-02T12:59:42;100754.59;;;26.61;46.93
66381;BME280;53177;52.648;1.214;2022-09-02T13:02:43;100755.31;;;26.14;42.01
66381;BME280;53177;52.648;1.214;2022-09-02T13:08:11;100746.38;;;26.33;41.30
66381;BME280;53177;52.648;1.214;2022-09-02T13:13:57;100741.44;;;26.86;43.46
66381;BME280;53177;52.648;1.214;2022-09-02T13:31:26;100718.59;;;26.69;46.70
66381;BME280;53177;52.648;1.214;2022-09-02T13:34:19;100725.78;;;26.74;43.39
66381;BME280;53177;52.648;1.214;2022-09-02T13:36:45;100728.41;;;25.79;48.85
66381;BME280;53177;52.648;1.214;2022-09-02T13:39:24;100716.00;;;26.29;45.94
66381;BME280;53177;52.648;1.214;2022-09-02T13:41:50;100718.66;;;26.10;50.37
66381;BME280;53177;52.648;1.214;2022-09-02T13:44:23;100712.44;;;26.13;44.78
66381;BME280;53177;52.648;1.214;2022-09-02T13:46:54;100719.63;;;26.33;48.93
66381;BME280;53177;52.648;1.214;2022-09-02T13:49:28;100712.03;;;25.83;45.27
66381;BME280;53177;52.648;1.214;2022-09-02T13:51:55;100714.59;;;24.99;47.33
66381;BME280;53177;52.648;1.214;2022-09-02T13:54:35;100713.00;;;24.98;48.74
66381;BME280;53177;52.648;1.214;2022-09-02T13:57:12;100700.78;;;24.83;48.43
66381;BME280;53177;52.648;1.214;2022-09-02T14:00:00;100700.31;;;24.11;49.61
66381;BME280;53177;52.648;1.214;2022-09-02T14:02:31;100703.97;;;24.73;49.21
66381;BME280;53177;52.648;1.214;2022-09-02T14:05:00;100702.00;;;24.73;49.18
66381;BME280;53177;52.648;1.214;2022-09-02T14:07:32;100697.91;;;24.67;48.90
66381;BME280;53177;52.648;1.214;2022-09-02T14:10:00;100702.50;;;24.87;49.75
66381;BME280;53177;52.648;1.214;2022-09-02T14:12:31;100699.63;;;24.96;50.94
66381;BME280;53177;52.648;1.214;2022-09-02T14:14:57;100686.59;;;24.11;50.39
66381;BME280;53177;52.648;1.214;2022-09-02T14:17:24;100691.84;;;24.49;50.09
66381;BME280;53177;52.648;1.214;2022-09-02T14:19:52;100691.72;;;24.45;54.65
66381;BME280;53177;52.648;1.214;2022-09-02T14:22:32;100685.06;;;24.34;50.10
66381;BME280;53177;52.648;1.214;2022-09-02T14:24:57;100687.25;;;23.95;51.43
66381;BME280;53177;52.648;1.214;2022-09-02T14:27:23;100695.16;;;24.55;51.36
66381;BME280;53177;52.648;1.214;2022-09-02T14:29:54;100697.56;;;24.93;51.08
66381;BME280;53177;52.648;1.214;2022-09-02T14:34:48;100684.38;;;24.86;50.45
66381;BME280;53177;52.648;1.214;2022-09-02T14:37:31;100686.81;;;24.06;50.50